sensor_id;sensor_type;location;lat;lon;timestamp;P1;durP1;ratioP1;P2;durP2;ratioP2
19030;SDS011;9648;51.130;13.978;2022-12-05T00:02:13;38.50;;;25.83;;
19030;SDS011;9648;51.130;13.978;2022-12-05T00:04:40;42.50;;;27.13;;
19030;SDS011;9648;51.130;13.978;2022-12-05T00:07:08;42.35;;;28.27;;
19030;SDS011;9648;51.130;13.978;2022-12-05T00:09:34;43.45;;;28.92;;
19030;SDS011;9648;51.130;13.978;2022-12-05T00:12:01;41.83;;;27.90;;
19030;SDS011;9648;51.130;13.978;2022-12-05T00:14:28;43.33;;;28.08;;
19030;SDS011;9648;51.130;13.978;2022-12-05T00:16:55;42.88;;;28.15;;
19030;SDS011;9648;51.130;13.978;2022-12-05T00:19:23;48.00;;;29.08;;
19030;SDS011;9648;51.130;13.978;2022-12-05T00:21:50;45.73;;;29.37;;
19030;SDS011;9648;51.130;13.978;2022-12-05T00:24:17;46.43;;;29.63;;
19030;SDS011;9648;51.130;13.978;2022-12-05T00:26:44;45.17;;;30.00;;
19030;SDS011;9648;51.130;13.978;2022-12-05T00:29:11;49.08;;;30.27;;
19030;SDS011;9648;51.130;13.978;2022-12-05T00:31:38;48.05;;;29.70;;
19030;SDS011;9648;51.130;13.978;2022-12-05T00:34:05;46.57;;;29.07;;
19030;SDS011;9648;51.130;13.978;2022-12-05T00:36:34;45.53;;;29.35;;
19030;SDS011;9648;51.130;13.978;2022-12-05T00:39:03;44.00;;;28.80;;
19030;SDS011;9648;51.130;13.978;2022-12-05T00:41:31;46.28;;;29.33;;
19030;SDS011;9648;51.130;13.978;2022-12-05T00:43:58;46.17;;;29.55;;
19030;SDS011;9648;51.130;13.978;2022-12-05T00:46:27;48.67;;;30.27;;
19030;SDS011;9648;51.130;13.978;2022-12-05T00:48:55;49.15;;;30.73;;
19030;SDS011;9648;51.130;13.978;2022-12-05T00:51:24;48.83;;;30.75;;
19030;SDS011;9648;51.130;13.978;2022-12-05T00:53:53;48.50;;;31.20;;
19030;SDS011;9648;51.130;13.978;2022-12-05T00:56:23;47.83;;;30.02;;
19030;SDS011;9648;51.130;13.978;2022-12-05T00:58:51;51.53;;;31.63;;
19030;SDS011;9648;51.130;13.978;2022-12-05T01:01:20;53.50;;;33.63;;
19030;SDS011;9648;51.130;13.978;2022-12-05T01:03:49;55.85;;;34.10;;
19030;SDS011;9648;51.130;13.978;2022-12-05T01:06:17;57.70;;;33.45;;
19030;SDS011;9648;51.130;13.978;2022-12-05T01:08:45;58.00;;;33.95;;
19030;SDS011;9648;51.130;13.978;2022-12-05T01:11:14;54.53;;;33.60;;
19030;SDS011;9648;51.130;13.978;2022-12-05T01:13:42;58.20;;;35.30;;
19030;SDS011;9648;51.130;13.978;2022-12-05T01:16:12;57.88;;;34.63;;
19030;SDS011;9648;51.130;13.978;2022-12-05T01:18:40;54.13;;;33.33;;
19030;SDS011;9648;51.130;13.978;2022-12-05T01:21:07;60.67;;;35.15;;
19030;SDS011;9648;51.130;13.978;2022-12-05T01:23:34;60.55;;;34.60;;
19030;SDS011;9648;51.130;13.978;2022-12-05T01:26:00;58.53;;;35.03;;
19030;SDS011;9648;51.130;13.978;2022-12-05T01:28:32;63.90;;;36.13;;
19030;SDS011;9648;51.130;13.978;2022-12-05T01:31:02;60.20;;;35.55;;
19030;SDS011;9648;51.130;13.978;2022-12-05T01:33:32;56.72;;;33.72;;
19030;SDS011;9648;51.130;13.978;2022-12-05T01:36:00;53.55;;;32.58;;
19030;SDS011;9648;51.130;13.978;2022-12-05T01:38:27;54.25;;;31.58;;
19030;SDS011;9648;51.130;13.978;2022-12-05T01:41:00;50.33;;;31.35;;
19030;SDS011;9648;51.130;13.978;2022-12-05T01:43:28;49.80;;;30.87;;
19030;SDS011;9648;51.130;13.978;2022-12-05T01:45:56;44.43;;;28.47;;
19030;SDS011;9648;51.130;13.978;2022-12-05T01:48:24;40.40;;;26.13;;
19030;SDS011;9648;51.130;13.978;2022-12-05T01:50:54;45.72;;;28.45;;
19030;SDS011;9648;51.130;13.978;2022-12-05T01:53:22;45.03;;;27.58;;
19030;SDS011;9648;51.130;13.978;2022-12-05T01:55:49;40.88;;;26.05;;
19030;SDS011;9648;51.130;13.978;2022-12-05T01:58:16;38.45;;;24.90;;
19030;SDS011;9648;51.130;13.978;2022-12-05T02:00:44;37.67;;;24.73;;
19030;SDS011;9648;51.130;13.978;2022-12-05T02:03:16;38.40;;;24.97;;
19030;SDS011;9648;51.130;13.978;2022-12-05T02:05:45;38.88;;;25.63;;
19030;SDS011;9648;51.130;13.978;2022-12-05T02:08:14;39.22;;;25.35;;
19030;SDS011;9648;51.130;13.978;2022-12-05T02:10:42;35.80;;;23.83;;
19030;SDS011;9648;51.130;13.978;2022-12-05T02:13:23;35.38;;;23.95;;
19030;SDS011;9648;51.130;13.978;2022-12-05T02:16:00;34.63;;;23.57;;
19030;SDS011;9648;51.130;13.978;2022-12-05T02:18:37;43.53;;;27.53;;
19030;SDS011;9648;51.130;13.978;2022-12-05T02:21:27;45.83;;;28.70;;
19030;SDS011;9648;51.130;13.978;2022-12-05T02:24:40;52.47;;;31.83;;
19030;SDS011;9648;51.130;13.978;2022-12-05T02:27:26;53.35;;;34.42;;
19030;SDS011;9648;51.130;13.978;2022-12-05T02:30:09;56.33;;;35.08;;
19030;SDS011;9648;51.130;13.978;2022-12-05T02:32:41;57.53;;;34.38;;
19030;SDS011;9648;51.130;13.978;2022-12-05T02:35:22;54.33;;;32.65;;
19030;SDS011;9648;51.130;13.978;2022-12-05T02:37:58;51.35;;;30.85;;
19030;SDS011;9648;51.130;13.978;2022-12-05T02:40:34;48.57;;;29.93;;
19030;SDS011;9648;51.130;13.978;2022-12-05T02:43:09;47.20;;;29.10;;
19030;SDS011;9648;51.130;13.978;2022-12-05T02:45:43;37.53;;;23.80;;
19030;SDS011;9648;51.130;13.978;2022-12-05T02:48:13;39.80;;;25.50;;
19030;SDS011;9648;51.130;13.978;2022-12-05T02:50:42;37.63;;;23.98;;
19030;SDS011;9648;51.130;13.978;2022-12-05T02:53:12;37.22;;;23.65;;
19030;SDS011;9648;51.130;13.978;2022-12-05T02:55:42;36.67;;;23.58;;
19030;SDS011;9648;51.130;13.978;2022-12-05T02:58:12;33.67;;;21.80;;
19030;SDS011;9648;51.130;13.978;2022-12-05T03:00:45;29.98;;;19.75;;
19030;SDS011;9648;51.130;13.978;2022-12-05T03:03:15;22.50;;;15.65;;
19030;SDS011;9648;51.130;13.978;2022-12-05T03:05:46;20.08;;;14.93;;
19030;SDS011;9648;51.130;13.978;2022-12-05T03:08:17;31.67;;;20.00;;
19030;SDS011;9648;51.130;13.978;2022-12-05T03:10:48;24.83;;;17.42;;
19030;SDS011;9648;51.130;13.978;2022-12-05T03:13:20;24.35;;;16.42;;
19030;SDS011;9648;51.130;13.978;2022-12-05T03:15:54;24.03;;;15.87;;
19030;SDS011;9648;51.130;13.978;2022-12-05T03:18:25;22.42;;;16.13;;
19030;SDS011;9648;51.130;13.978;2022-12-05T03:20:56;20.42;;;14.57;;
19030;SDS011;9648;51.130;13.978;2022-12-05T03:23:26;21.33;;;15.07;;
19030;SDS011;9648;51.130;13.978;2022-12-05T03:26:00;20.17;;;14.70;;
19030;SDS011;9648;51.130;13.978;2022-12-05T03:28:38;19.77;;;13.73;;
19030;SDS011;9648;51.130;13.978;2022-12-05T03:31:15;18.83;;;13.48;;
19030;SDS011;9648;51.130;13.978;2022-12-05T03:33:47;20.35;;;14.68;;
19030;SDS011;9648;51.130;13.978;2022-12-05T03:36:18;19.05;;;13.50;;
19030;SDS011;9648;51.130;13.978;2022-12-05T03:38:50;18.75;;;13.85;;
19030;SDS011;9648;51.130;13.978;2022-12-05T03:41:21;17.45;;;12.68;;
19030;SDS011;9648;51.130;13.978;2022-12-05T03:43:51;18.05;;;13.50;;
19030;SDS011;9648;51.130;13.978;2022-12-05T03:46:25;18.30;;;13.70;;
19030;SDS011;9648;51.130;13.978;2022-12-05T03:48:55;15.88;;;12.05;;
19030;SDS011;9648;51.130;13.978;2022-12-05T03:51:27;16.55;;;11.70;;
19030;SDS011;9648;51.130;13.978;2022-12-05T03:53:58;15.27;;;11.52;;
19030;SDS011;9648;51.130;13.978;2022-12-05T03:56:30;15.77;;;12.05;;
19030;SDS011;9648;51.130;13.978;2022-12-05T03:59:04;16.07;;;11.80;;
19030;SDS011;9648;51.130;13.978;2022-12-05T04:01:38;15.80;;;11.57;;
19030;SDS011;9648;51.130;13.978;2022-12-05T04:04:07;14.33;;;11.07;;
19030;SDS011;9648;51.130;13.978;2022-12-05T04:06:38;15.57;;;11.43;;
19030;SDS011;9648;51.130;13.978;2022-12-05T04:09:09;14.85;;;11.10;;
19030;SDS011;9648;51.130;13.978;2022-12-05T04:11:41;15.30;;;10.93;;
19030;SDS011;9648;51.130;13.978;2022-12-05T04:14:14;13.02;;;10.43;;
19030;SDS011;9648;51.130;13.978;2022-12-05T04:16:45;14.27;;;11.27;;
19030;SDS011;9648;51.130;13.978;2022-12-05T04:19:31;14.52;;;10.93;;
19030;SDS011;9648;51.130;13.978;2022-12-05T04:22:20;16.67;;;11.57;;
19030;SDS011;9648;51.130;13.978;2022-12-05T04:24:49;15.68;;;11.15;;
19030;SDS011;9648;51.130;13.978;2022-12-05T04:27:36;14.07;;;10.32;;
19030;SDS011;9648;51.130;13.978;2022-12-05T04:30:07;13.32;;;9.43;;
19030;SDS011;9648;51.130;13.978;2022-12-05T04:32:41;12.77;;;9.88;;
19030;SDS011;9648;51.130;13.978;2022-12-05T04:35:11;13.05;;;9.93;;
19030;SDS011;9648;51.130;13.978;2022-12-05T04:37:46;12.48;;;9.48;;
19030;SDS011;9648;51.130;13.978;2022-12-05T04:40:17;13.65;;;9.80;;
19030;SDS011;9648;51.130;13.978;2022-12-05T04:42:48;12.50;;;9.73;;
19030;SDS011;9648;51.130;13.978;2022-12-05T04:45:19;13.45;;;10.13;;
19030;SDS011;9648;51.130;13.978;2022-12-05T04:47:50;13.00;;;9.70;;
19030;SDS011;9648;51.130;13.978;2022-12-05T04:50:21;13.13;;;9.88;;
19030;SDS011;9648;51.130;13.978;2022-12-05T04:52:50;13.35;;;9.95;;
19030;SDS011;9648;51.130;13.978;2022-12-05T04:55:21;15.07;;;9.17;;
19030;SDS011;9648;51.130;13.978;2022-12-05T04:57:52;11.18;;;9.07;;
19030;SDS011;9648;51.130;13.978;2022-12-05T05:00:27;11.38;;;8.88;;
19030;SDS011;9648;51.130;13.978;2022-12-05T05:02:59;12.43;;;9.18;;
19030;SDS011;9648;51.130;13.978;2022-12-05T05:05:30;10.15;;;8.10;;
19030;SDS011;9648;51.130;13.978;2022-12-05T05:07:59;12.52;;;9.40;;
19030;SDS011;9648;51.130;13.978;2022-12-05T05:10:30;10.48;;;8.35;;
19030;SDS011;9648;51.130;13.978;2022-12-05T05:13:10;12.20;;;8.70;;
19030;SDS011;9648;51.130;13.978;2022-12-05T05:15:37;10.98;;;8.88;;
19030;SDS011;9648;51.130;13.978;2022-12-05T05:18:05;11.07;;;8.77;;
19030;SDS011;9648;51.130;13.978;2022-12-05T05:20:32;11.32;;;8.50;;
19030;SDS011;9648;51.130;13.978;2022-12-05T05:22:58;10.32;;;8.15;;
19030;SDS011;9648;51.130;13.978;2022-12-05T05:25:25;10.40;;;8.32;;
19030;SDS011;9648;51.130;13.978;2022-12-05T05:27:53;13.63;;;8.80;;
19030;SDS011;9648;51.130;13.978;2022-12-05T05:30:22;10.77;;;8.30;;
19030;SDS011;9648;51.130;13.978;2022-12-05T05:32:49;11.13;;;8.48;;
19030;SDS011;9648;51.130;13.978;2022-12-05T05:35:18;9.18;;;7.43;;
19030;SDS011;9648;51.130;13.978;2022-12-05T05:37:45;11.85;;;8.30;;
19030;SDS011;9648;51.130;13.978;2022-12-05T05:40:12;10.43;;;8.00;;
19030;SDS011;9648;51.130;13.978;2022-12-05T05:42:43;11.05;;;8.32;;
19030;SDS011;9648;51.130;13.978;2022-12-05T05:45:11;11.05;;;8.50;;
19030;SDS011;9648;51.130;13.978;2022-12-05T05:47:39;10.10;;;7.73;;
19030;SDS011;9648;51.130;13.978;2022-12-05T05:50:06;10.00;;;7.70;;
19030;SDS011;9648;51.130;13.978;2022-12-05T05:52:36;11.07;;;8.23;;
19030;SDS011;9648;51.130;13.978;2022-12-05T05:55:03;11.27;;;8.50;;
19030;SDS011;9648;51.130;13.978;2022-12-05T05:57:32;11.30;;;8.50;;
19030;SDS011;9648;51.130;13.978;2022-12-05T05:59:59;11.23;;;8.57;;
19030;SDS011;9648;51.130;13.978;2022-12-05T06:02:30;11.38;;;9.30;;
19030;SDS011;9648;51.130;13.978;2022-12-05T06:04:57;12.25;;;8.73;;
19030;SDS011;9648;51.130;13.978;2022-12-05T06:07:24;10.52;;;7.97;;
19030;SDS011;9648;51.130;13.978;2022-12-05T06:09:52;11.80;;;9.05;;
19030;SDS011;9648;51.130;13.978;2022-12-05T06:12:19;10.37;;;8.40;;
19030;SDS011;9648;51.130;13.978;2022-12-05T06:14:46;11.90;;;9.00;;
19030;SDS011;9648;51.130;13.978;2022-12-05T06:17:13;13.13;;;9.40;;
19030;SDS011;9648;51.130;13.978;2022-12-05T06:19:40;12.48;;;9.82;;
19030;SDS011;9648;51.130;13.978;2022-12-05T06:22:07;13.13;;;10.32;;
19030;SDS011;9648;51.130;13.978;2022-12-05T06:24:34;12.43;;;9.77;;
19030;SDS011;9648;51.130;13.978;2022-12-05T06:27:02;11.90;;;9.70;;
19030;SDS011;9648;51.130;13.978;2022-12-05T06:29:29;9.65;;;7.70;;
19030;SDS011;9648;51.130;13.978;2022-12-05T06:31:56;11.02;;;8.70;;
19030;SDS011;9648;51.130;13.978;2022-12-05T06:34:22;13.88;;;9.82;;
19030;SDS011;9648;51.130;13.978;2022-12-05T06:36:49;11.33;;;9.17;;
19030;SDS011;9648;51.130;13.978;2022-12-05T06:39:16;10.23;;;8.32;;
19030;SDS011;9648;51.130;13.978;2022-12-05T06:41:43;11.98;;;9.18;;
19030;SDS011;9648;51.130;13.978;2022-12-05T06:44:11;11.77;;;9.07;;
19030;SDS011;9648;51.130;13.978;2022-12-05T06:46:38;12.55;;;9.23;;
19030;SDS011;9648;51.130;13.978;2022-12-05T06:49:05;11.50;;;9.07;;
19030;SDS011;9648;51.130;13.978;2022-12-05T06:51:31;10.50;;;8.75;;
19030;SDS011;9648;51.130;13.978;2022-12-05T06:53:58;12.70;;;9.13;;
19030;SDS011;9648;51.130;13.978;2022-12-05T06:56:25;10.60;;;8.38;;
19030;SDS011;9648;51.130;13.978;2022-12-05T06:58:52;12.18;;;8.95;;
19030;SDS011;9648;51.130;13.978;2022-12-05T07:01:22;11.95;;;9.30;;
19030;SDS011;9648;51.130;13.978;2022-12-05T07:04:06;12.32;;;9.30;;
19030;SDS011;9648;51.130;13.978;2022-12-05T07:06:36;11.70;;;9.10;;
19030;SDS011;9648;51.130;13.978;2022-12-05T07:09:03;13.15;;;9.88;;
19030;SDS011;9648;51.130;13.978;2022-12-05T07:11:31;12.82;;;10.07;;
19030;SDS011;9648;51.130;13.978;2022-12-05T07:13:58;12.25;;;9.40;;
19030;SDS011;9648;51.130;13.978;2022-12-05T07:16:26;12.02;;;9.25;;
19030;SDS011;9648;51.130;13.978;2022-12-05T07:18:53;11.25;;;9.15;;
19030;SDS011;9648;51.130;13.978;2022-12-05T07:21:20;12.20;;;9.30;;
19030;SDS011;9648;51.130;13.978;2022-12-05T07:23:47;13.57;;;10.60;;
19030;SDS011;9648;51.130;13.978;2022-12-05T07:26:16;12.17;;;9.07;;
19030;SDS011;9648;51.130;13.978;2022-12-05T07:28:45;12.77;;;9.93;;
19030;SDS011;9648;51.130;13.978;2022-12-05T07:31:13;12.05;;;9.25;;
19030;SDS011;9648;51.130;13.978;2022-12-05T07:33:42;13.13;;;9.90;;
19030;SDS011;9648;51.130;13.978;2022-12-05T07:36:10;12.55;;;9.70;;
19030;SDS011;9648;51.130;13.978;2022-12-05T07:38:38;11.63;;;9.30;;
19030;SDS011;9648;51.130;13.978;2022-12-05T07:41:06;14.80;;;10.90;;
19030;SDS011;9648;51.130;13.978;2022-12-05T07:43:34;13.43;;;9.93;;
19030;SDS011;9648;51.130;13.978;2022-12-05T07:46:01;12.60;;;9.48;;
19030;SDS011;9648;51.130;13.978;2022-12-05T07:48:29;11.43;;;9.55;;
19030;SDS011;9648;51.130;13.978;2022-12-05T07:50:59;13.20;;;10.52;;
19030;SDS011;9648;51.130;13.978;2022-12-05T07:53:27;13.20;;;10.25;;
19030;SDS011;9648;51.130;13.978;2022-12-05T07:55:57;13.13;;;10.23;;
19030;SDS011;9648;51.130;13.978;2022-12-05T07:58:24;13.47;;;9.97;;
19030;SDS011;9648;51.130;13.978;2022-12-05T08:00:51;11.95;;;9.40;;
19030;SDS011;9648;51.130;13.978;2022-12-05T08:03:18;13.25;;;10.15;;
19030;SDS011;9648;51.130;13.978;2022-12-05T08:05:45;12.23;;;9.10;;
19030;SDS011;9648;51.130;13.978;2022-12-05T08:08:13;13.52;;;10.25;;
19030;SDS011;9648;51.130;13.978;2022-12-05T08:10:40;12.55;;;9.95;;
19030;SDS011;9648;51.130;13.978;2022-12-05T08:13:06;11.45;;;9.30;;
19030;SDS011;9648;51.130;13.978;2022-12-05T08:15:33;11.43;;;8.57;;
19030;SDS011;9648;51.130;13.978;2022-12-05T08:18:01;11.45;;;9.38;;
19030;SDS011;9648;51.130;13.978;2022-12-05T08:20:28;13.35;;;10.32;;
19030;SDS011;9648;51.130;13.978;2022-12-05T08:22:56;11.18;;;8.93;;
19030;SDS011;9648;51.130;13.978;2022-12-05T08:25:24;13.07;;;10.30;;
19030;SDS011;9648;51.130;13.978;2022-12-05T08:27:51;13.23;;;9.90;;
19030;SDS011;9648;51.130;13.978;2022-12-05T08:30:18;12.52;;;10.15;;
19030;SDS011;9648;51.130;13.978;2022-12-05T08:32:45;12.77;;;10.55;;
19030;SDS011;9648;51.130;13.978;2022-12-05T08:35:12;11.75;;;9.60;;
19030;SDS011;9648;51.130;13.978;2022-12-05T08:37:38;14.82;;;10.95;;
19030;SDS011;9648;51.130;13.978;2022-12-05T08:40:06;13.13;;;10.00;;
19030;SDS011;9648;51.130;13.978;2022-12-05T08:42:34;14.90;;;10.00;;
19030;SDS011;9648;51.130;13.978;2022-12-05T08:45:01;16.02;;;11.18;;
19030;SDS011;9648;51.130;13.978;2022-12-05T08:47:28;12.25;;;9.50;;
19030;SDS011;9648;51.130;13.978;2022-12-05T08:49:55;14.00;;;10.90;;
19030;SDS011;9648;51.130;13.978;2022-12-05T08:52:22;13.45;;;10.20;;
19030;SDS011;9648;51.130;13.978;2022-12-05T08:54:49;12.77;;;10.32;;
19030;SDS011;9648;51.130;13.978;2022-12-05T08:57:15;13.77;;;10.25;;
19030;SDS011;9648;51.130;13.978;2022-12-05T08:59:44;12.82;;;10.18;;
19030;SDS011;9648;51.130;13.978;2022-12-05T09:02:10;13.80;;;9.98;;
19030;SDS011;9648;51.130;13.978;2022-12-05T09:04:37;13.77;;;10.90;;
19030;SDS011;9648;51.130;13.978;2022-12-05T09:07:04;14.60;;;11.20;;
19030;SDS011;9648;51.130;13.978;2022-12-05T09:09:32;13.35;;;10.35;;
19030;SDS011;9648;51.130;13.978;2022-12-05T09:11:59;14.05;;;10.80;;
19030;SDS011;9648;51.130;13.978;2022-12-05T09:14:26;12.73;;;9.82;;
19030;SDS011;9648;51.130;13.978;2022-12-05T09:16:58;14.37;;;10.40;;
19030;SDS011;9648;51.130;13.978;2022-12-05T09:19:26;13.57;;;9.93;;
19030;SDS011;9648;51.130;13.978;2022-12-05T09:21:53;12.82;;;10.02;;
19030;SDS011;9648;51.130;13.978;2022-12-05T09:24:21;12.18;;;9.40;;
19030;SDS011;9648;51.130;13.978;2022-12-05T09:26:48;12.70;;;9.40;;
19030;SDS011;9648;51.130;13.978;2022-12-05T09:29:15;12.73;;;9.50;;
19030;SDS011;9648;51.130;13.978;2022-12-05T09:31:42;12.75;;;9.90;;
19030;SDS011;9648;51.130;13.978;2022-12-05T09:34:10;12.75;;;9.93;;
19030;SDS011;9648;51.130;13.978;2022-12-05T09:36:38;13.07;;;9.38;;
19030;SDS011;9648;51.130;13.978;2022-12-05T09:39:05;12.85;;;9.05;;
19030;SDS011;9648;51.130;13.978;2022-12-05T09:44:56;13.80;;;9.48;;
19030;SDS011;9648;51.130;13.978;2022-12-05T09:47:32;12.30;;;9.20;;
19030;SDS011;9648;51.130;13.978;2022-12-05T09:50:13;12.93;;;9.07;;
19030;SDS011;9648;51.130;13.978;2022-12-05T09:52:47;13.40;;;10.10;;
19030;SDS011;9648;51.130;13.978;2022-12-05T09:55:21;12.13;;;9.70;;
19030;SDS011;9648;51.130;13.978;2022-12-05T09:57:50;13.05;;;10.18;;
19030;SDS011;9648;51.130;13.978;2022-12-05T10:00:19;14.75;;;9.68;;
19030;SDS011;9648;51.130;13.978;2022-12-05T10:02:56;12.48;;;9.13;;
19030;SDS011;9648;51.130;13.978;2022-12-05T10:05:34;14.80;;;10.32;;
19030;SDS011;9648;51.130;13.978;2022-12-05T10:08:09;14.27;;;10.63;;
19030;SDS011;9648;51.130;13.978;2022-12-05T10:10:44;15.82;;;10.70;;
19030;SDS011;9648;51.130;13.978;2022-12-05T10:13:23;13.73;;;10.40;;
19030;SDS011;9648;51.130;13.978;2022-12-05T10:15:59;14.00;;;10.60;;
19030;SDS011;9648;51.130;13.978;2022-12-05T10:18:33;15.03;;;11.07;;
19030;SDS011;9648;51.130;13.978;2022-12-05T10:21:11;16.73;;;11.57;;
19030;SDS011;9648;51.130;13.978;2022-12-05T10:23:47;15.68;;;11.82;;
19030;SDS011;9648;51.130;13.978;2022-12-05T10:26:21;15.85;;;11.38;;
19030;SDS011;9648;51.130;13.978;2022-12-05T10:28:50;16.17;;;11.93;;
19030;SDS011;9648;51.130;13.978;2022-12-05T10:31:23;16.90;;;12.43;;
19030;SDS011;9648;51.130;13.978;2022-12-05T10:33:55;18.27;;;13.60;;
19030;SDS011;9648;51.130;13.978;2022-12-05T10:36:30;19.13;;;13.82;;
19030;SDS011;9648;51.130;13.978;2022-12-05T10:38:57;19.17;;;14.53;;
19030;SDS011;9648;51.130;13.978;2022-12-05T10:41:24;22.25;;;15.57;;
19030;SDS011;9648;51.130;13.978;2022-12-05T10:43:52;21.52;;;15.38;;
19030;SDS011;9648;51.130;13.978;2022-12-05T10:46:20;20.27;;;14.97;;
19030;SDS011;9648;51.130;13.978;2022-12-05T10:48:47;19.75;;;14.98;;
19030;SDS011;9648;51.130;13.978;2022-12-05T10:51:14;21.63;;;15.77;;
19030;SDS011;9648;51.130;13.978;2022-12-05T10:53:46;22.98;;;16.15;;
19030;SDS011;9648;51.130;13.978;2022-12-05T10:59:01;25.42;;;17.70;;
19030;SDS011;9648;51.130;13.978;2022-12-05T11:01:29;25.02;;;17.67;;
19030;SDS011;9648;51.130;13.978;2022-12-05T11:03:56;22.63;;;16.98;;
19030;SDS011;9648;51.130;13.978;2022-12-05T11:06:25;24.63;;;17.42;;
19030;SDS011;9648;51.130;13.978;2022-12-05T11:08:55;24.60;;;16.95;;
19030;SDS011;9648;51.130;13.978;2022-12-05T11:11:24;24.73;;;17.63;;
19030;SDS011;9648;51.130;13.978;2022-12-05T11:13:53;24.60;;;17.23;;
19030;SDS011;9648;51.130;13.978;2022-12-05T11:16:22;23.65;;;16.83;;
19030;SDS011;9648;51.130;13.978;2022-12-05T11:18:49;23.67;;;16.80;;
19030;SDS011;9648;51.130;13.978;2022-12-05T11:21:17;22.88;;;16.40;;
19030;SDS011;9648;51.130;13.978;2022-12-05T11:23:45;22.13;;;15.85;;
19030;SDS011;9648;51.130;13.978;2022-12-05T11:26:18;24.40;;;15.88;;
19030;SDS011;9648;51.130;13.978;2022-12-05T11:28:59;21.50;;;15.80;;
19030;SDS011;9648;51.130;13.978;2022-12-05T11:31:26;20.58;;;14.70;;
19030;SDS011;9648;51.130;13.978;2022-12-05T11:34:00;20.42;;;15.18;;
19030;SDS011;9648;51.130;13.978;2022-12-05T11:36:34;22.45;;;15.82;;
19030;SDS011;9648;51.130;13.978;2022-12-05T11:39:05;22.05;;;15.68;;
19030;SDS011;9648;51.130;13.978;2022-12-05T11:41:37;26.53;;;18.13;;
19030;SDS011;9648;51.130;13.978;2022-12-05T11:44:28;28.17;;;18.80;;
19030;SDS011;9648;51.130;13.978;2022-12-05T11:47:21;23.90;;;16.80;;
19030;SDS011;9648;51.130;13.978;2022-12-05T11:50:08;24.95;;;17.73;;
19030;SDS011;9648;51.130;13.978;2022-12-05T11:52:49;25.20;;;18.73;;
19030;SDS011;9648;51.130;13.978;2022-12-05T11:55:23;27.33;;;18.85;;
19030;SDS011;9648;51.130;13.978;2022-12-05T11:57:58;20.95;;;15.45;;
19030;SDS011;9648;51.130;13.978;2022-12-05T12:00:35;23.57;;;17.23;;
19030;SDS011;9648;51.130;13.978;2022-12-05T12:03:29;27.30;;;20.02;;
19030;SDS011;9648;51.130;13.978;2022-12-05T12:06:22;20.05;;;15.02;;
19030;SDS011;9648;51.130;13.978;2022-12-05T12:08:56;18.17;;;13.82;;
19030;SDS011;9648;51.130;13.978;2022-12-05T12:11:39;18.92;;;14.65;;
19030;SDS011;9648;51.130;13.978;2022-12-05T12:14:13;20.73;;;15.48;;
19030;SDS011;9648;51.130;13.978;2022-12-05T12:16:45;19.95;;;15.40;;
19030;SDS011;9648;51.130;13.978;2022-12-05T12:19:35;18.48;;;14.30;;
19030;SDS011;9648;51.130;13.978;2022-12-05T12:22:19;19.42;;;14.23;;
19030;SDS011;9648;51.130;13.978;2022-12-05T12:28:00;19.58;;;13.68;;
19030;SDS011;9648;51.130;13.978;2022-12-05T12:30:39;18.48;;;13.02;;
19030;SDS011;9648;51.130;13.978;2022-12-05T12:33:20;17.35;;;12.30;;
19030;SDS011;9648;51.130;13.978;2022-12-05T12:35:56;18.48;;;12.68;;
19030;SDS011;9648;51.130;13.978;2022-12-05T12:38:38;19.30;;;13.25;;
19030;SDS011;9648;51.130;13.978;2022-12-05T12:41:24;18.30;;;13.45;;
19030;SDS011;9648;51.130;13.978;2022-12-05T12:44:04;16.30;;;12.18;;
19030;SDS011;9648;51.130;13.978;2022-12-05T12:46:48;18.55;;;13.25;;
19030;SDS011;9648;51.130;13.978;2022-12-05T12:49:29;18.92;;;13.45;;
19030;SDS011;9648;51.130;13.978;2022-12-05T12:52:09;19.17;;;13.77;;
19030;SDS011;9648;51.130;13.978;2022-12-05T12:57:46;21.08;;;14.13;;
19030;SDS011;9648;51.130;13.978;2022-12-05T13:00:21;16.50;;;12.18;;
19030;SDS011;9648;51.130;13.978;2022-12-05T13:02:58;19.58;;;13.48;;
19030;SDS011;9648;51.130;13.978;2022-12-05T13:05:32;17.33;;;13.47;;
19030;SDS011;9648;51.130;13.978;2022-12-05T13:08:03;17.58;;;12.63;;
19030;SDS011;9648;51.130;13.978;2022-12-05T13:10:40;19.38;;;13.45;;
19030;SDS011;9648;51.130;13.978;2022-12-05T13:13:10;16.13;;;11.48;;
19030;SDS011;9648;51.130;13.978;2022-12-05T13:15:42;14.10;;;10.63;;
19030;SDS011;9648;51.130;13.978;2022-12-05T13:18:15;15.63;;;11.55;;
19030;SDS011;9648;51.130;13.978;2022-12-05T13:20:43;17.50;;;11.27;;
19030;SDS011;9648;51.130;13.978;2022-12-05T13:23:11;15.20;;;11.20;;
19030;SDS011;9648;51.130;13.978;2022-12-05T13:25:41;16.33;;;11.90;;
19030;SDS011;9648;51.130;13.978;2022-12-05T13:28:15;14.38;;;10.93;;
19030;SDS011;9648;51.130;13.978;2022-12-05T13:30:51;14.80;;;10.30;;
19030;SDS011;9648;51.130;13.978;2022-12-05T13:33:29;13.52;;;9.65;;
19030;SDS011;9648;51.130;13.978;2022-12-05T13:36:02;13.87;;;9.70;;
19030;SDS011;9648;51.130;13.978;2022-12-05T13:38:56;14.77;;;10.60;;
19030;SDS011;9648;51.130;13.978;2022-12-05T13:41:42;12.50;;;9.50;;
19030;SDS011;9648;51.130;13.978;2022-12-05T13:44:30;13.85;;;10.32;;
19030;SDS011;9648;51.130;13.978;2022-12-05T13:47:01;14.65;;;10.70;;
19030;SDS011;9648;51.130;13.978;2022-12-05T13:49:33;14.38;;;10.57;;
19030;SDS011;9648;51.130;13.978;2022-12-05T13:52:08;16.10;;;11.75;;
19030;SDS011;9648;51.130;13.978;2022-12-05T13:54:41;17.35;;;11.93;;
19030;SDS011;9648;51.130;13.978;2022-12-05T14:00:19;19.35;;;13.63;;
19030;SDS011;9648;51.130;13.978;2022-12-05T14:02:55;17.60;;;13.07;;
19030;SDS011;9648;51.130;13.978;2022-12-05T14:05:38;18.48;;;12.65;;
19030;SDS011;9648;51.130;13.978;2022-12-05T14:11:16;17.20;;;12.25;;
19030;SDS011;9648;51.130;13.978;2022-12-05T14:13:43;17.25;;;11.93;;
19030;SDS011;9648;51.130;13.978;2022-12-05T14:19:13;19.15;;;14.60;;
19030;SDS011;9648;51.130;13.978;2022-12-05T14:21:59;18.17;;;13.70;;
19030;SDS011;9648;51.130;13.978;2022-12-05T14:24:41;18.97;;;14.50;;
19030;SDS011;9648;51.130;13.978;2022-12-05T14:27:22;19.52;;;14.85;;
19030;SDS011;9648;51.130;13.978;2022-12-05T14:29:58;16.75;;;13.05;;
19030;SDS011;9648;51.130;13.978;2022-12-05T14:32:30;18.83;;;13.80;;
19030;SDS011;9648;51.130;13.978;2022-12-05T14:35:00;19.48;;;14.00;;
19030;SDS011;9648;51.130;13.978;2022-12-05T14:37:37;20.02;;;14.45;;
19030;SDS011;9648;51.130;13.978;2022-12-05T14:40:15;20.80;;;15.52;;
19030;SDS011;9648;51.130;13.978;2022-12-05T14:42:49;20.45;;;15.18;;
19030;SDS011;9648;51.130;13.978;2022-12-05T14:45:32;19.03;;;14.40;;
19030;SDS011;9648;51.130;13.978;2022-12-05T14:48:02;17.80;;;13.73;;
19030;SDS011;9648;51.130;13.978;2022-12-05T14:50:38;20.77;;;15.35;;
19030;SDS011;9648;51.130;13.978;2022-12-05T14:53:20;21.08;;;15.38;;
19030;SDS011;9648;51.130;13.978;2022-12-05T14:55:52;25.77;;;17.60;;
19030;SDS011;9648;51.130;13.978;2022-12-05T14:58:30;22.02;;;15.88;;
19030;SDS011;9648;51.130;13.978;2022-12-05T15:01:01;21.83;;;16.23;;
19030;SDS011;9648;51.130;13.978;2022-12-05T15:03:32;21.83;;;14.57;;
19030;SDS011;9648;51.130;13.978;2022-12-05T15:06:02;13.60;;;10.45;;
19030;SDS011;9648;51.130;13.978;2022-12-05T15:08:33;13.90;;;10.30;;
19030;SDS011;9648;51.130;13.978;2022-12-05T15:11:10;13.35;;;10.45;;
19030;SDS011;9648;51.130;13.978;2022-12-05T15:13:52;12.95;;;10.07;;